createdAt,value
2023-12-01T00:01:09.301Z,40.90
2023-12-01T00:07:11.345Z,37.10
2023-12-01T00:13:13.336Z,127.13
2023-12-01T00:19:15.564Z,55.83
2023-12-01T00:25:17.551Z,53.20
2023-12-01T00:31:19.812Z,84.43
2023-12-01T00:37:24.684Z,60.67
2023-12-01T00:43:27.516Z,84.10
2023-12-01T00:49:29.522Z,61.77
2023-12-01T00:55:31.501Z,53.97
2023-12-01T01:01:34.701Z,43.33
2023-12-01T01:07:36.714Z,44.50
2023-12-01T01:13:38.702Z,47.20
2023-12-01T01:19:40.644Z,41.27
2023-12-01T01:25:42.656Z,48.57
2023-12-01T01:31:44.737Z,57.87
2023-12-01T01:37:47.085Z,46.57
2023-12-01T01:43:49.057Z,46.93
2023-12-01T01:49:51.285Z,43.60
2023-12-01T01:55:53.720Z,42.40
2023-12-01T02:01:56.473Z,42.77
2023-12-01T02:08:18.585Z,56.07
2023-12-01T02:14:23.057Z,43.93
2023-12-01T02:20:25.434Z,40.83
2023-12-01T02:26:27.449Z,37.27
2023-12-01T02:32:29.438Z,37.43
2023-12-01T02:38:31.408Z,49.37
2023-12-01T02:44:33.358Z,39.43
2023-12-01T02:50:36.101Z,40.77
2023-12-01T02:56:38.131Z,45.07
2023-12-01T03:02:43.967Z,34.73
2023-12-01T03:08:47.410Z,31.07
2023-12-01T03:15:05.396Z,31.33
2023-12-01T03:21:14.482Z,42.77
2023-12-01T03:27:26.672Z,32.80
2023-12-01T03:33:28.702Z,38.00
2023-12-01T03:39:34.226Z,35.40
2023-12-01T03:45:36.303Z,39.47
2023-12-01T03:51:38.571Z,39.00
2023-12-01T03:57:42.208Z,41.00
2023-12-01T04:03:44.403Z,37.30
2023-12-01T04:09:47.189Z,36.93
2023-12-01T04:15:49.846Z,36.93
2023-12-01T04:21:53.876Z,37.63
2023-12-01T04:28:00.170Z,35.47
2023-12-01T04:34:02.437Z,30.60
2023-12-01T04:40:05.211Z,29.10
2023-12-01T04:46:08.169Z,24.53
2023-12-01T04:52:10.214Z,28.20
2023-12-01T04:58:12.321Z,26.07
2023-12-01T05:04:14.634Z,30.67
2023-12-01T05:10:22.500Z,27.07
2023-12-01T05:16:24.841Z,29.13
2023-12-01T05:22:26.844Z,26.83
2023-12-01T05:28:28.790Z,29.53
2023-12-01T05:34:30.823Z,29.23
2023-12-01T05:40:38.441Z,32.70
2023-12-01T05:46:42.810Z,31.77
2023-12-01T05:52:49.233Z,27.60
2023-12-01T05:58:51.934Z,29.37
2023-12-01T06:04:54.066Z,30.17
2023-12-01T06:10:56.245Z,27.93
2023-12-01T06:16:58.496Z,26.37
2023-12-01T06:23:07.294Z,26.33
2023-12-01T06:29:09.676Z,28.13
2023-12-01T06:35:17.300Z,25.13
2023-12-01T06:41:19.414Z,28.97
2023-12-01T06:47:21.366Z,25.93
2023-12-01T06:53:23.393Z,26.17
2023-12-01T06:59:25.461Z,32.33
2023-12-01T07:05:29.160Z,31.63
2023-12-01T07:11:31.391Z,28.23
2023-12-01T07:17:36.345Z,34.10
2023-12-01T07:23:41.509Z,29.70
2023-12-01T07:29:43.553Z,27.53
2023-12-01T07:35:45.647Z,29.27
2023-12-01T07:41:47.670Z,30.07
2023-12-01T07:47:52.814Z,29.83
2023-12-01T07:53:55.021Z,30.70
2023-12-01T07:59:57.756Z,34.13
2023-12-01T08:06:00.814Z,36.30
2023-12-01T08:12:04.843Z,30.43
2023-12-01T08:18:06.963Z,27.70
2023-12-01T08:24:09.111Z,26.67
2023-12-01T08:30:18.458Z,30.83
2023-12-01T08:36:22.343Z,34.43
2023-12-01T08:42:24.986Z,30.77
2023-12-01T08:48:27.118Z,41.03
2023-12-01T09:17:33.251Z,24.80
2023-12-01T09:23:35.287Z,30.10
2023-12-01T09:29:37.490Z,28.03
2023-12-01T09:35:55.415Z,26.80
2023-12-01T09:42:07.234Z,31.90
2023-12-01T09:48:11.804Z,18.33
2023-12-01T09:54:13.889Z,18.30
2023-12-01T10:00:16.350Z,19.33
2023-12-01T10:06:18.795Z,18.43
2023-12-01T10:12:20.788Z,14.73
2023-12-01T10:18:26.470Z,17.50
2023-12-01T10:24:32.097Z,10.70
2023-12-01T10:30:34.652Z,12.70
2023-12-01T10:36:36.685Z,11.30
2023-12-01T10:42:38.708Z,11.43
2023-12-01T10:48:41.601Z,12.67
2023-12-01T10:54:44.934Z,12.30
2023-12-01T11:00:47.031Z,14.40
2023-12-01T11:07:26.741Z,12.67
2023-12-01T11:13:36.804Z,13.67
2023-12-01T11:19:40.141Z,11.67
2023-12-01T11:25:57.079Z,11.50
2023-12-01T11:31:59.323Z,12.20
2023-12-01T11:38:05.795Z,14.10
2023-12-01T11:44:36.402Z,11.30
2023-12-01T11:50:41.737Z,12.30
2023-12-01T11:56:50.402Z,12.20
2023-12-01T12:02:53.303Z,18.70
2023-12-01T12:08:55.392Z,18.27
2023-12-01T12:15:09.725Z,14.80
2023-12-01T12:21:11.754Z,18.63
2023-12-01T12:27:13.930Z,20.70
2023-12-01T12:33:16.476Z,16.60
2023-12-01T12:39:18.603Z,20.50
2023-12-01T12:45:21.454Z,17.53
2023-12-01T12:51:26.402Z,23.43
2023-12-01T12:57:28.409Z,20.33
2023-12-01T13:03:30.377Z,23.00
2023-12-01T13:09:32.459Z,17.93
2023-12-01T13:15:34.448Z,21.03
2023-12-01T13:21:36.688Z,20.63
2023-12-01T13:27:38.937Z,20.80
2023-12-01T13:33:41.221Z,36.80
2023-12-01T13:39:44.170Z,17.83
2023-12-01T13:45:46.820Z,19.37
2023-12-01T13:51:48.976Z,18.27
2023-12-01T13:57:54.452Z,18.27
2023-12-01T14:03:56.705Z,15.40
2023-12-01T14:09:58.667Z,17.63
2023-12-01T14:16:03.580Z,13.03
2023-12-01T14:22:07.613Z,14.17
2023-12-01T14:28:09.562Z,20.43
2023-12-01T14:34:11.781Z,15.70
2023-12-01T14:40:13.782Z,13.03
2023-12-01T14:46:15.813Z,16.77
2023-12-01T14:52:17.828Z,13.40
2023-12-01T14:58:19.813Z,11.23
2023-12-01T15:04:21.848Z,11.20
2023-12-01T15:10:24.151Z,10.10
2023-12-01T15:16:26.225Z,10.30
2023-12-01T15:22:28.206Z,13.37
2023-12-01T15:28:32.584Z,9.90
2023-12-01T15:34:34.575Z,11.83
2023-12-01T15:40:36.529Z,11.37
2023-12-01T15:46:38.527Z,13.77
2023-12-01T15:52:40.518Z,20.13
2023-12-01T15:58:42.544Z,16.30
2023-12-01T16:04:47.266Z,21.20
2023-12-01T16:10:50.649Z,16.73
2023-12-01T16:16:54.298Z,18.90
2023-12-01T16:22:56.475Z,17.40
2023-12-01T16:28:58.542Z,18.23
2023-12-01T16:35:00.468Z,18.47
2023-12-01T16:41:02.432Z,26.13
2023-12-01T16:47:04.452Z,19.90
2023-12-01T16:53:06.610Z,18.63
2023-12-01T16:59:08.627Z,20.13
2023-12-01T17:05:10.786Z,18.63
2023-12-01T17:11:12.746Z,21.57
2023-12-01T17:17:14.702Z,20.57
2023-12-01T17:23:17.570Z,23.00
2023-12-01T17:29:20.649Z,26.30
2023-12-01T17:35:22.952Z,16.93
2023-12-01T17:41:25.385Z,14.93
2023-12-01T17:47:27.306Z,14.63
2023-12-01T17:53:29.242Z,16.37
2023-12-01T17:59:31.192Z,16.70
2023-12-01T18:05:33.155Z,18.73
2023-12-01T18:11:35.110Z,15.87
2023-12-01T18:17:37.269Z,16.80
2023-12-01T18:23:39.359Z,15.53
2023-12-01T18:29:41.483Z,14.73
2023-12-01T18:35:45.920Z,17.83
2023-12-01T18:41:49.953Z,17.37
2023-12-01T18:47:53.355Z,16.00
2023-12-01T18:53:55.457Z,16.70
2023-12-01T18:59:57.519Z,18.73
2023-12-01T19:05:59.622Z,18.50
2023-12-01T19:12:01.695Z,15.00
2023-12-01T19:18:03.940Z,16.73
2023-12-01T19:24:07.098Z,16.37
2023-12-01T19:30:09.986Z,12.03
2023-12-01T19:36:12.500Z,12.83
2023-12-01T19:42:17.592Z,20.23
2023-12-01T19:48:22.548Z,14.57
2023-12-01T19:54:26.148Z,17.70
2023-12-01T20:00:29.180Z,12.20
2023-12-01T20:06:31.402Z,11.87
2023-12-01T20:12:33.456Z,15.00
2023-12-01T20:18:35.583Z,13.90
2023-12-01T20:24:37.706Z,16.57
2023-12-01T20:30:39.644Z,13.37
2023-12-01T20:36:41.600Z,14.93
2023-12-01T20:42:43.978Z,13.07
2023-12-01T20:48:46.147Z,15.83
2023-12-01T20:54:48.426Z,16.00
2023-12-01T21:00:50.394Z,26.70
2023-12-01T21:06:52.419Z,102.53
2023-12-01T21:12:54.364Z,19.20
2023-12-01T21:18:56.452Z,12.40
2023-12-01T21:24:58.481Z,12.70
2023-12-01T21:31:00.542Z,9.70
2023-12-01T21:37:02.520Z,8.23
2023-12-01T21:43:04.454Z,13.70
2023-12-01T21:49:07.008Z,15.90
2023-12-01T21:55:09.550Z,8.33
2023-12-01T22:01:11.520Z,10.47
2023-12-01T22:07:13.470Z,13.20
2023-12-01T22:13:15.452Z,12.13
2023-12-01T22:19:17.472Z,8.93
2023-12-01T22:25:19.491Z,12.27
2023-12-01T22:31:21.412Z,9.90
2023-12-01T22:37:23.363Z,10.27
2023-12-01T22:43:25.291Z,11.40
2023-12-01T22:49:27.738Z,10.40
2023-12-01T22:55:29.696Z,11.10
2023-12-01T23:01:31.641Z,11.13
2023-12-01T23:07:33.592Z,9.30
2023-12-01T23:13:36.457Z,8.40
2023-12-01T23:19:39.989Z,8.77
2023-12-01T23:25:42.007Z,7.17
2023-12-01T23:31:43.997Z,7.30
2023-12-01T23:37:45.926Z,8.63
2023-12-01T23:43:47.889Z,12.27
2023-12-01T23:49:49.966Z,9.03
2023-12-01T23:55:52.406Z,7.73
